Time;durP1;ratioP1;P1;durP2;ratioP2;P2;SDS_P1;SDS_P2;PMS_P1;PMS_P2;Temp;Humidity;BMP_temperature;BMP_pressure;BME280_temperature;BME280_humidity;BME280_pressure;Samples;Min_cycle;Max_cycle;Signal;HPM_P1;HPM_P2
2022/11/26 00:00:32;;;;;;;3.92;1.35;;;26.70;70.90;;;;;;5018903;28;20659;-83
2022/11/26 00:02:59;;;;;;;3.30;1.40;;;26.90;68.10;;;;;;5016930;28;20394;-83
2022/11/26 00:05:31;;;;;;;4.97;1.40;;;26.00;70.00;;;;;;5014883;28;20395;-85
2022/11/26 00:07:59;;;;;;;3.42;1.40;;;25.50;71.30;;;;;;5020490;28;20391;-84
2022/11/26 00:10:29;;;;;;;3.60;1.40;;;24.90;71.00;;;;;;5011585;28;20437;-85
2022/11/26 00:12:56;;;;;;;3.72;1.33;;;24.80;72.70;;;;;;5018195;28;20453;-79
2022/11/26 00:15:26;;;;;;;4.50;1.40;;;24.80;72.80;;;;;;5023190;28;20382;-87
2022/11/26 00:17:54;;;;;;;3.50;1.40;;;24.80;73.10;;;;;;5014609;28;20388;-82
2022/11/26 00:20:29;;;;;;;7.32;1.60;;;25.60;72.90;;;;;;5015246;28;20829;-87
2022/11/26 00:23:03;;;;;;;2.00;1.27;;;26.30;70.10;;;;;;5022648;28;20457;-85
2022/11/26 00:25:51;;;;;;;3.28;1.30;;;26.20;69.00;;;;;;5020515;28;20899;-85
2022/11/26 00:28:27;;;;;;;2.80;1.38;;;26.00;69.00;;;;;;5027547;28;20458;-82
2022/11/26 00:30:56;;;;;;;4.15;1.35;;;26.10;69.90;;;;;;5015053;28;20391;-83
2022/11/26 00:33:25;;;;;;;2.90;1.40;;;26.10;70.50;;;;;;5027836;28;20388;-86
2022/11/26 00:36:02;;;;;;;2.72;1.20;;;26.70;70.00;;;;;;5022348;28;20393;-85
2022/11/26 00:38:30;;;;;;;3.75;1.50;;;26.70;67.70;;;;;;5015469;28;20960;-84
2022/11/26 00:40:58;;;;;;;4.30;1.42;;;26.50;66.50;;;;;;5006487;28;20411;-83
2022/11/26 00:43:25;;;;;;;2.70;1.30;;;26.90;66.50;;;;;;5010849;28;20386;-84
2022/11/26 00:45:52;;;;;;;3.53;1.42;;;27.60;64.80;;;;;;5008579;28;20393;-84
2022/11/26 00:48:19;;;;;;;3.55;1.23;;;27.70;64.40;;;;;;5009973;28;20398;-84
2022/11/26 00:50:49;;;;;;;5.15;1.38;;;27.60;63.00;;;;;;5024757;28;20440;-84
2022/11/26 00:53:20;;;;;;;4.70;1.40;;;27.60;64.00;;;;;;5013620;28;20755;-84
2022/11/26 00:55:49;;;;;;;3.00;1.17;;;27.40;63.30;;;;;;5014603;28;20874;-91
2022/11/26 00:58:36;;;;;;;2.60;1.40;;;27.10;63.80;;;;;;5065874;28;20385;-84
2022/11/26 01:01:03;;;;;;;4.63;1.70;;;26.90;64.30;;;;;;5068651;28;21026;-84
2022/11/26 01:03:30;;;;;;;3.47;1.38;;;26.20;64.50;;;;;;5042650;28;20482;-87
2022/11/26 01:05:59;;;;;;;4.50;1.35;;;25.80;66.50;;;;;;5045312;28;20384;-82
2022/11/26 01:08:33;;;;;;;3.80;1.40;;;26.00;68.10;;;;;;5072527;28;20397;-84
2022/11/26 01:11:02;;;;;;;8.55;1.60;;;26.70;66.30;;;;;;5057648;28;20382;-90
2022/11/26 01:13:29;;;;;;;6.33;1.83;;;27.10;64.50;;;;;;5072696;28;20385;-86
2022/11/26 01:15:59;;;;;;;21.30;4.00;;;27.70;63.80;;;;;;5064251;28;20702;-82
2022/11/26 01:18:27;;;;;;;205.63;20.67;;;28.20;62.30;;;;;;5051920;28;20393;-84
2022/11/26 01:20:54;;;;;;;5.05;1.80;;;28.40;59.20;;;;;;5069723;28;20385;-84
2022/11/26 01:23:21;;;;;;;3.38;1.60;;;28.10;60.70;;;;;;5072704;28;20377;-84
2022/11/26 01:25:48;;;;;;;4.63;1.50;;;28.00;61.80;;;;;;5072583;28;20385;-88
2022/11/26 01:28:18;;;;;;;4.05;1.35;;;28.10;61.00;;;;;;5071575;28;20370;-91
2022/11/26 01:30:45;;;;;;;4.63;1.40;;;28.20;60.40;;;;;;5068635;28;20417;-86
2022/11/26 01:33:12;;;;;;;14.87;2.37;;;27.90;59.20;;;;;;5066625;28;20743;-87
2022/11/26 01:35:40;;;;;;;7.07;2.72;;;27.50;61.10;;;;;;5068839;28;20454;-88
2022/11/26 01:38:10;;;;;;;6.20;1.60;;;27.90;61.10;;;;;;5056486;28;20367;-81
2022/11/26 01:40:45;;;;;;;13.98;2.40;;;28.70;59.70;;;;;;5067059;28;20850;-81
2022/11/26 01:43:31;;;;;;;17.88;2.78;;;29.20;59.40;;;;;;5061959;28;20378;-82
2022/11/26 01:45:58;;;;;;;3.95;1.50;;;29.20;57.50;;;;;;5072211;28;20867;-85
2022/11/26 01:48:34;;;;;;;3.93;1.33;;;28.20;58.70;;;;;;5070727;28;20447;-84
2022/11/26 01:51:12;;;;;;;3.33;1.50;;;28.40;59.20;;;;;;5071952;28;20849;-85
2022/11/26 01:53:53;;;;;;;3.80;1.70;;;28.90;60.00;;;;;;5063817;28;20472;-80
2022/11/26 01:56:27;;;;;;;26.20;3.00;;;29.30;58.90;;;;;;5071504;28;20770;-80
2022/11/26 01:59:00;;;;;;;3.65;1.75;;;30.00;56.70;;;;;;5071558;28;20393;-80
2022/11/26 02:01:27;;;;;;;5.45;1.50;;;30.50;55.50;;;;;;5071193;28;20393;-81
2022/11/26 02:04:09;;;;;;;5.28;1.50;;;30.80;55.10;;;;;;5061354;28;20378;-84
2022/11/26 02:06:36;;;;;;;5.60;1.60;;;31.10;55.30;;;;;;5071695;28;20850;-79
2022/11/26 02:09:06;;;;;;;4.70;1.60;;;31.30;53.20;;;;;;5057557;28;20508;-82
2022/11/26 02:11:33;;;;;;;2.80;1.50;;;31.80;52.90;;;;;;5071511;28;20428;-79
2022/11/26 02:14:13;;;;;;;3.33;1.60;;;32.10;52.30;;;;;;5071208;28;20370;-82
2022/11/26 02:17:21;;;;;;;4.78;1.77;;;32.00;51.90;;;;;;5063468;28;20397;-83
2022/11/26 02:20:19;;;;;;;4.43;1.67;;;32.20;51.00;;;;;;5071243;28;20436;-82
2022/11/26 02:23:20;;;;;;;3.83;1.40;;;31.90;51.90;;;;;;5066335;28;20799;-83
2022/11/26 02:26:34;;;;;;;5.32;1.50;;;31.70;51.90;;;;;;5071638;28;20374;-81
2022/11/26 02:29:23;;;;;;;3.57;1.50;;;31.80;50.70;;;;;;4979728;28;20389;-86
2022/11/26 02:32:04;;;;;;;2.85;1.60;;;32.20;50.50;;;;;;4989413;28;20388;-82
2022/11/26 02:34:54;;;;;;;7.05;1.77;;;32.50;49.90;;;;;;4989058;28;20404;-83
2022/11/26 02:37:24;;;;;;;4.68;1.35;;;32.70;48.60;;;;;;4989466;28;20452;-82
2022/11/26 02:39:51;;;;;;;10.47;1.63;;;32.50;48.70;;;;;;4989237;28;20825;-86
2022/11/26 02:42:35;;;;;;;4.27;1.40;;;32.10;50.10;;;;;;4989597;28;20889;-82
2022/11/26 02:45:15;;;;;;;5.20;1.50;;;32.50;49.40;;;;;;4989402;28;20424;-82
2022/11/26 02:47:46;;;;;;;3.55;1.40;;;32.90;48.50;;;;;;4988872;28;20480;-83
2022/11/26 02:50:19;;;;;;;5.60;1.50;;;33.40;48.10;;;;;;4988721;28;20452;-81
2022/11/26 02:52:48;;;;;;;9.98;3.30;;;33.20;47.30;;;;;;4979250;28;20405;-83
2022/11/26 02:55:19;;;;;;;3.65;1.60;;;32.70;48.00;;;;;;4989135;28;20850;-82
2022/11/26 02:57:49;;;;;;;4.07;1.85;;;32.10;47.70;;;;;;4989049;28;20405;-83
2022/11/26 03:00:17;;;;;;;139.35;10.48;;;30.80;50.80;;;;;;4988929;28;20900;-81
2022/11/26 03:02:47;;;;;;;3.95;1.40;;;31.20;51.50;;;;;;4972395;28;20424;-80
2022/11/26 03:05:16;;;;;;;10.05;1.65;;;32.20;50.00;;;;;;5012159;28;20805;-81
2022/11/26 03:07:49;;;;;;;3.95;1.50;;;32.90;48.40;;;;;;5063564;28;20376;-82
2022/11/26 03:10:19;;;;;;;5.13;1.50;;;33.40;46.30;;;;;;5064484;28;20374;-84
2022/11/26 03:12:46;;;;;;;3.30;1.60;;;33.40;47.20;;;;;;5069749;28;20366;-85
2022/11/26 03:15:13;;;;;;;4.50;1.63;;;33.00;48.40;;;;;;5067814;28;20389;-81
2022/11/26 03:17:40;;;;;;;5.40;1.77;;;33.20;48.00;;;;;;5064733;28;20746;-82
2022/11/26 03:20:07;;;;;;;5.53;1.70;;;33.40;47.50;;;;;;5070456;28;20402;-80
2022/11/26 03:22:35;;;;;;;5.03;1.67;;;33.70;47.30;;;;;;5069955;28;20423;-79
2022/11/26 03:25:02;;;;;;;8.50;1.70;;;34.00;46.70;;;;;;5067031;28;20427;-78
2022/11/26 03:27:29;;;;;;;5.00;1.60;;;34.30;46.50;;;;;;5050000;28;20371;-80
2022/11/26 03:29:59;;;;;;;3.20;1.60;;;34.10;46.30;;;;;;5067246;28;20385;-85
2022/11/26 03:32:26;;;;;;;3.30;1.60;;;33.70;47.30;;;;;;5070166;28;20378;-85
2022/11/26 03:34:53;;;;;;;37.42;7.93;;;33.70;47.60;;;;;;5068710;28;20384;-84
2022/11/26 03:37:20;;;;;;;7.75;2.30;;;33.90;47.40;;;;;;5050313;28;20387;-81
2022/11/26 03:39:47;;;;;;;10.00;2.33;;;34.20;46.20;;;;;;5064761;28;20481;-86
2022/11/26 03:42:14;;;;;;;10.02;2.88;;;34.40;46.30;;;;;;5070292;28;20381;-82
2022/11/26 03:44:41;;;;;;;5.28;1.92;;;34.20;46.30;;;;;;5063107;28;20382;-84
2022/11/26 03:47:08;;;;;;;2.85;1.50;;;33.80;46.20;;;;;;5067783;28;20385;-82
2022/11/26 03:49:35;;;;;;;6.10;1.80;;;34.00;45.90;;;;;;5056021;28;21236;-85
2022/11/26 03:52:03;;;;;;;3.92;1.60;;;34.00;46.40;;;;;;5057754;28;20884;-80
2022/11/26 03:54:30;;;;;;;15.57;2.30;;;33.10;48.40;;;;;;5069787;28;20374;-80
2022/11/26 03:56:57;;;;;;;5.85;1.67;;;33.60;47.50;;;;;;5066081;28;20393;-83
2022/11/26 03:59:24;;;;;;;4.10;1.75;;;34.20;47.10;;;;;;5070004;28;20877;-83
2022/11/26 04:01:51;;;;;;;3.38;1.70;;;34.40;47.20;;;;;;5069821;28;20390;-79
2022/11/26 04:04:19;;;;;;;4.80;1.70;;;34.80;46.80;;;;;;5059907;28;20401;-82
2022/11/26 04:06:45;;;;;;;4.88;1.88;;;34.60;46.20;;;;;;5069550;28;20385;-83
2022/11/26 04:09:12;;;;;;;4.38;1.70;;;34.00;47.00;;;;;;5069854;28;20457;-78
2022/11/26 04:11:39;;;;;;;3.00;1.75;;;34.00;46.30;;;;;;5069751;28;20370;-79
2022/11/26 04:14:06;;;;;;;4.00;1.70;;;34.00;46.70;;;;;;5051584;28;20742;-80
2022/11/26 04:16:33;;;;;;;5.15;1.90;;;34.10;46.90;;;;;;5062943;28;20377;-78
2022/11/26 04:19:01;;;;;;;4.32;1.70;;;33.80;47.70;;;;;;5065375;28;20408;-78
2022/11/26 04:21:27;;;;;;;4.10;1.70;;;33.70;48.40;;;;;;5063756;28;20382;-80
2022/11/26 04:23:55;;;;;;;3.97;1.73;;;33.70;47.90;;;;;;5059712;28;20385;-85
2022/11/26 04:26:22;;;;;;;6.97;1.83;;;33.90;48.10;;;;;;5073517;28;20915;-81
2022/11/26 04:28:49;;;;;;;4.55;1.60;;;34.00;47.80;;;;;;5073560;28;20916;-80
2022/11/26 04:31:17;;;;;;;3.50;1.67;;;33.70;47.40;;;;;;5072966;28;20378;-88
2022/11/26 04:33:44;;;;;;;4.95;1.70;;;33.30;47.40;;;;;;5060772;28;20867;-86
2022/11/26 04:36:11;;;;;;;4.10;1.60;;;33.30;48.10;;;;;;5064723;28;20401;-88
2022/11/26 04:38:38;;;;;;;3.55;1.60;;;33.30;48.30;;;;;;5053931;28;20382;-86
2022/11/26 04:41:05;;;;;;;4.72;1.67;;;33.20;47.90;;;;;;5061817;28;20413;-86
2022/11/26 04:43:32;;;;;;;2.72;1.50;;;32.90;48.70;;;;;;5063685;28;20389;-86
2022/11/26 04:45:59;;;;;;;6.22;1.83;;;32.70;49.10;;;;;;5039114;28;20764;-85
2022/11/26 04:48:26;;;;;;;4.45;1.80;;;32.70;49.20;;;;;;5072786;28;20377;-86
2022/11/26 04:50:53;;;;;;;3.78;1.70;;;32.50;48.60;;;;;;5061520;28;20488;-88
2022/11/26 04:53:21;;;;;;;4.47;1.70;;;32.20;49.70;;;;;;5062066;28;20392;-87
2022/11/26 04:55:49;;;;;;;4.95;1.80;;;32.20;49.80;;;;;;5041235;28;20397;-85
2022/11/26 04:58:18;;;;;;;5.10;1.88;;;31.90;49.80;;;;;;5064126;28;20383;-88
2022/11/26 05:00:45;;;;;;;4.40;1.60;;;31.60;50.70;;;;;;5054319;28;20434;-87
2022/11/26 05:03:13;;;;;;;3.90;1.80;;;31.60;50.70;;;;;;5055205;28;20411;-88
2022/11/26 05:05:40;;;;;;;5.68;1.88;;;31.20;51.20;;;;;;5067127;28;20382;-82
2022/11/26 05:08:07;;;;;;;5.00;1.60;;;31.10;51.40;;;;;;5062117;28;20387;-88
2022/11/26 05:10:34;;;;;;;6.43;1.73;;;31.10;51.50;;;;;;5055875;28;20384;-88
2022/11/26 05:13:01;;;;;;;7.05;2.00;;;31.30;51.00;;;;;;5073002;28;20886;-84
2022/11/26 05:15:28;;;;;;;5.75;1.85;;;31.40;51.10;;;;;;5043704;28;20391;-85
2022/11/26 05:17:55;;;;;;;3.92;1.60;;;31.30;50.40;;;;;;5060087;28;20381;-89
2022/11/26 05:20:23;;;;;;;4.20;1.70;;;30.60;51.80;;;;;;5057831;28;20532;-85
2022/11/26 05:22:50;;;;;;;4.15;1.52;;;30.60;51.60;;;;;;5063862;28;20391;-87
2022/11/26 05:25:17;;;;;;;5.28;1.70;;;30.90;51.50;;;;;;5060934;28;20737;-88
2022/11/26 05:27:44;;;;;;;3.58;1.58;;;30.70;50.90;;;;;;5060950;28;20384;-85
2022/11/26 05:30:11;;;;;;;3.72;1.50;;;30.60;50.90;;;;;;5074474;28;20420;-87
2022/11/26 05:32:38;;;;;;;5.30;2.20;;;30.50;51.50;;;;;;5067361;28;20387;-85
2022/11/26 05:35:06;;;;;;;3.97;1.80;;;30.30;51.80;;;;;;5059227;28;20473;-87
2022/11/26 05:37:33;;;;;;;3.75;1.50;;;30.20;52.20;;;;;;5066613;28;20410;-86
2022/11/26 05:40:00;;;;;;;4.30;1.85;;;30.30;51.20;;;;;;5061544;28;20412;-86
2022/11/26 05:42:27;;;;;;;7.68;1.85;;;30.10;51.70;;;;;;5058193;28;20416;-87
2022/11/26 05:44:54;;;;;;;6.55;2.20;;;29.90;52.00;;;;;;5055200;28;20394;-85
2022/11/26 05:47:21;;;;;;;4.35;1.75;;;29.40;53.10;;;;;;5056830;28;20391;-85
2022/11/26 05:49:48;;;;;;;6.40;2.00;;;29.00;53.80;;;;;;5065238;28;20378;-85
2022/11/26 05:52:15;;;;;;;4.57;1.80;;;28.50;54.50;;;;;;5069930;28;20385;-85
2022/11/26 05:54:42;;;;;;;4.93;1.70;;;28.80;54.30;;;;;;5062739;28;20943;-89
2022/11/26 05:57:09;;;;;;;3.67;1.40;;;29.30;54.00;;;;;;5070930;28;20780;-83
2022/11/26 05:59:36;;;;;;;5.13;1.80;;;29.80;52.90;;;;;;5052368;28;20469;-84
2022/11/26 06:02:03;;;;;;;6.57;2.42;;;30.40;51.90;;;;;;5067800;28;20836;-85
2022/11/26 06:04:30;;;;;;;4.55;2.00;;;30.20;52.00;;;;;;5061872;28;20424;-85
2022/11/26 06:06:57;;;;;;;6.30;1.90;;;29.60;52.30;;;;;;5057802;28;20407;-85
2022/11/26 06:09:25;;;;;;;9.38;2.60;;;29.10;53.00;;;;;;5058409;28;20401;-85
2022/11/26 06:11:52;;;;;;;6.05;1.95;;;28.50;54.40;;;;;;5061385;28;20467;-86
2022/11/26 06:14:20;;;;;;;3.63;1.45;;;28.20;55.70;;;;;;5073822;28;20390;-85
2022/11/26 06:16:50;;;;;;;3.92;1.50;;;28.30;55.00;;;;;;5069006;28;20374;-85
2022/11/26 06:19:17;;;;;;;6.10;1.53;;;28.40;55.10;;;;;;5068873;28;20412;-85
2022/11/26 06:21:44;;;;;;;8.82;1.92;;;28.60;55.20;;;;;;5055956;28;20392;-85
2022/11/26 06:24:12;;;;;;;3.25;1.48;;;29.10;54.10;;;;;;5059859;28;20388;-85
2022/11/26 06:26:39;;;;;;;3.63;1.30;;;29.10;53.60;;;;;;5062139;28;20382;-87
2022/11/26 06:29:07;;;;;;;3.88;1.60;;;28.80;53.90;;;;;;5067905;28;20414;-86
2022/11/26 06:31:34;;;;;;;4.45;1.40;;;28.80;55.30;;;;;;5055082;28;20469;-87
2022/11/26 06:34:01;;;;;;;5.47;1.63;;;28.70;54.30;;;;;;5062821;28;20949;-86
2022/11/26 06:36:31;;;;;;;6.88;2.13;;;28.40;54.90;;;;;;5057926;28;20456;-86
2022/11/26 06:38:58;;;;;;;15.15;2.83;;;28.10;55.60;;;;;;5054539;28;20441;-87
2022/11/26 06:41:26;;;;;;;7.30;1.90;;;28.10;55.60;;;;;;5045749;28;20410;-88
2022/11/26 06:43:53;;;;;;;23.25;3.00;;;28.10;55.80;;;;;;5037976;28;20380;-86
2022/11/26 06:46:20;;;;;;;6.85;1.70;;;27.90;56.30;;;;;;5055388;28;20391;-85
2022/11/26 06:48:47;;;;;;;4.47;1.35;;;27.40;56.70;;;;;;5059286;28;20412;-86
2022/11/26 06:51:19;;;;;;;4.87;1.30;;;27.20;57.00;;;;;;5056610;28;20813;-85
2022/11/26 06:53:46;;;;;;;4.05;1.45;;;26.80;57.50;;;;;;5064660;28;20390;-85
2022/11/26 06:56:15;;;;;;;4.20;1.40;;;26.50;58.40;;;;;;5054732;28;20483;-86
2022/11/26 06:58:43;;;;;;;3.13;1.40;;;26.20;58.70;;;;;;5058870;28;20384;-81
2022/11/26 07:01:15;;;;;;;4.50;1.60;;;25.90;59.40;;;;;;5070767;28;20872;-83
2022/11/26 07:03:42;;;;;;;4.25;1.35;;;25.80;60.00;;;;;;5054544;28;20468;-83
2022/11/26 07:06:23;;;;;;;4.05;1.42;;;25.80;59.80;;;;;;5063955;28;20391;-82
2022/11/26 07:08:52;;;;;;;7.80;1.30;;;25.40;60.70;;;;;;5067652;28;20381;-83
2022/11/26 07:11:20;;;;;;;6.40;1.50;;;25.20;61.00;;;;;;5071785;28;20402;-82
2022/11/26 07:13:47;;;;;;;2.67;1.35;;;24.80;62.00;;;;;;5071177;28;20377;-79
2022/11/26 07:16:15;;;;;;;4.83;1.40;;;24.50;63.60;;;;;;5053136;28;20393;-80
2022/11/26 07:18:42;;;;;;;4.45;1.40;;;24.80;62.80;;;;;;5071780;28;20392;-80
2022/11/26 07:21:13;;;;;;;4.22;1.40;;;25.40;61.20;;;;;;5070948;28;20390;-83
2022/11/26 07:23:41;;;;;;;3.33;1.45;;;25.90;60.70;;;;;;5071046;28;20374;-83
2022/11/26 07:26:10;;;;;;;4.13;1.40;;;26.00;59.80;;;;;;5071482;28;20382;-82
2022/11/26 07:28:37;;;;;;;3.03;1.33;;;26.10;59.80;;;;;;5070963;28;20433;-80
2022/11/26 07:31:12;;;;;;;4.13;1.30;;;26.30;59.90;;;;;;5070581;28;20468;-81
2022/11/26 07:33:40;;;;;;;3.80;1.45;;;26.70;58.60;;;;;;5070671;28;20427;-80
2022/11/26 07:36:13;;;;;;;4.10;1.35;;;26.90;58.50;;;;;;5057996;28;20371;-81
2022/11/26 07:38:40;;;;;;;3.25;1.25;;;26.70;58.40;;;;;;5055564;28;20882;-80
2022/11/26 07:41:10;;;;;;;6.53;1.52;;;25.90;59.80;;;;;;5070635;28;20391;-80
2022/11/26 07:43:40;;;;;;;4.07;1.60;;;25.30;61.20;;;;;;5070124;28;20370;-80
2022/11/26 07:46:09;;;;;;;4.70;1.45;;;24.70;63.00;;;;;;5059640;28;20368;-81
2022/11/26 07:48:38;;;;;;;4.63;1.50;;;24.10;64.40;;;;;;5067098;28;20385;-79
2022/11/26 07:51:07;;;;;;;4.47;1.42;;;23.70;65.70;;;;;;5070147;28;20386;-80
2022/11/26 07:53:35;;;;;;;4.73;1.57;;;23.60;66.50;;;;;;5070645;28;20382;-82
2022/11/26 07:56:05;;;;;;;6.78;2.40;;;23.80;66.80;;;;;;5061503;28;20410;-83
2022/11/26 07:58:33;;;;;;;7.10;2.43;;;24.10;65.80;;;;;;5063895;28;20373;-81
2022/11/26 08:01:07;;;;;;;6.47;1.70;;;24.30;65.50;;;;;;5061640;28;20473;-81
2022/11/26 08:03:38;;;;;;;4.87;1.43;;;24.20;65.30;;;;;;5074016;28;20436;-82
2022/11/26 08:06:08;;;;;;;4.82;1.40;;;23.90;65.50;;;;;;5074066;28;20370;-84
2022/11/26 08:08:35;;;;;;;6.23;1.50;;;23.80;66.60;;;;;;5073884;28;20366;-81
2022/11/26 08:11:04;;;;;;;4.45;1.42;;;23.50;67.20;;;;;;5073979;28;20370;-80
2022/11/26 08:13:31;;;;;;;5.35;1.40;;;23.30;67.50;;;;;;5073933;28;20377;-81
2022/11/26 08:15:58;;;;;;;4.47;1.52;;;23.20;68.20;;;;;;5073474;28;20466;-80
2022/11/26 08:18:25;;;;;;;5.73;2.10;;;23.30;68.60;;;;;;5063194;28;20407;-84
2022/11/26 08:20:57;;;;;;;5.07;1.80;;;23.20;68.50;;;;;;5070551;28;20408;-81
2022/11/26 08:23:25;;;;;;;4.95;1.90;;;23.10;69.10;;;;;;5073414;28;20456;-83
2022/11/26 08:25:52;;;;;;;5.03;1.40;;;22.80;69.90;;;;;;5073448;28;20753;-80
2022/11/26 08:28:19;;;;;;;4.75;1.38;;;22.60;70.60;;;;;;5073464;28;20812;-80
2022/11/26 08:30:46;;;;;;;7.07;1.77;;;22.50;71.30;;;;;;5073314;28;20496;-81
2022/11/26 08:33:14;;;;;;;7.05;1.77;;;22.20;71.70;;;;;;5073333;28;20385;-80
2022/11/26 08:35:41;;;;;;;6.57;1.80;;;21.70;72.70;;;;;;5073245;28;20379;-83
2022/11/26 08:38:08;;;;;;;7.55;3.60;;;21.70;73.80;;;;;;5073244;28;20884;-81
2022/11/26 08:40:35;;;;;;;24.07;15.70;;;21.50;74.60;;;;;;5073283;28;20413;-81
2022/11/26 08:43:02;;;;;;;12.20;7.30;;;21.30;74.90;;;;;;5073497;28;20374;-80
2022/11/26 08:45:29;;;;;;;12.23;6.25;;;21.30;75.70;;;;;;5073353;28;20386;-80
2022/11/26 08:47:56;;;;;;;10.10;4.47;;;21.10;76.20;;;;;;5073251;28;20439;-80
2022/11/26 08:50:24;;;;;;;14.52;7.13;;;21.00;76.90;;;;;;5072991;28;20377;-81
2022/11/26 08:52:54;;;;;;;13.60;8.52;;;20.90;77.50;;;;;;5073034;28;20973;-82
2022/11/26 08:55:21;;;;;;;11.55;4.25;;;20.80;78.00;;;;;;5073142;28;20382;-81
2022/11/26 08:57:48;;;;;;;10.52;3.03;;;20.70;78.80;;;;;;5073114;28;20856;-81
2022/11/26 09:00:16;;;;;;;7.70;1.90;;;20.60;79.50;;;;;;5073217;28;20401;-81
2022/11/26 09:02:43;;;;;;;7.32;2.28;;;20.50;80.20;;;;;;5073126;28;20378;-81
2022/11/26 09:05:10;;;;;;;7.72;2.20;;;20.50;81.20;;;;;;5072951;28;20385;-80
2022/11/26 09:07:38;;;;;;;8.80;1.98;;;20.40;82.40;;;;;;5052653;28;20395;-81
2022/11/26 09:10:07;;;;;;;4.65;1.80;;;20.40;82.90;;;;;;5064898;28;20729;-82
2022/11/26 09:12:34;;;;;;;5.07;2.03;;;20.30;84.10;;;;;;5071621;28;20369;-79
2022/11/26 09:15:01;;;;;;;5.85;1.98;;;20.20;85.30;;;;;;5072706;28;20448;-80
2022/11/26 09:17:28;;;;;;;6.07;1.95;;;20.10;86.70;;;;;;5072802;28;20374;-81
2022/11/26 09:19:56;;;;;;;6.18;1.92;;;20.00;88.90;;;;;;5072798;28;20735;-83
2022/11/26 09:22:23;;;;;;;6.53;1.60;;;19.90;90.40;;;;;;5068576;28;20419;-82
2022/11/26 09:24:50;;;;;;;6.85;1.70;;;19.90;90.90;;;;;;5054308;28;20390;-81
2022/11/26 09:27:17;;;;;;;6.32;1.70;;;19.80;91.60;;;;;;5072613;28;20382;-82
2022/11/26 09:29:45;;;;;;;7.25;2.05;;;19.80;92.30;;;;;;5070459;28;20406;-81
2022/11/26 09:32:12;;;;;;;6.65;2.00;;;19.80;92.80;;;;;;5060615;28;20901;-82
2022/11/26 09:34:39;;;;;;;6.57;2.13;;;19.80;93.40;;;;;;5072320;28;20933;-81
2022/11/26 09:37:06;;;;;;;8.55;1.98;;;19.80;94.00;;;;;;5072579;28;20374;-81
2022/11/26 09:39:33;;;;;;;6.53;2.23;;;19.80;94.40;;;;;;5060553;28;20438;-80
2022/11/26 09:42:10;;;;;;;5.78;2.20;;;19.70;95.00;;;;;;5071184;28;20374;-81
2022/11/26 09:44:53;;;;;;;8.00;2.15;;;19.60;95.60;;;;;;5072056;28;20401;-83
2022/11/26 09:47:26;;;;;;;7.20;1.70;;;19.60;96.10;;;;;;5045612;28;20366;-81
2022/11/26 09:50:37;;;;;;;6.93;1.88;;;19.50;96.50;;;;;;5072260;28;20420;-79
2022/11/26 09:53:21;;;;;;;8.27;1.93;;;19.40;97.10;;;;;;5050833;28;20392;-79
2022/11/26 09:55:59;;;;;;;5.15;1.70;;;19.40;97.50;;;;;;5045681;28;20921;-81
2022/11/26 09:58:56;;;;;;;5.80;1.70;;;19.40;98.10;;;;;;5072243;28;20455;-80
2022/11/26 10:01:24;;;;;;;9.10;2.60;;;19.40;98.40;;;;;;5073367;28;20393;-79
2022/11/26 10:03:51;;;;;;;7.88;2.97;;;19.30;98.80;;;;;;5057667;28;20379;-82
2022/11/26 10:06:52;;;;;;;6.90;2.92;;;19.30;99.00;;;;;;5071110;28;20387;-78
2022/11/26 10:09:50;;;;;;;6.78;2.20;;;19.20;99.50;;;;;;5066112;28;20358;-79
2022/11/26 10:12:34;;;;;;;4.85;1.80;;;19.10;99.90;;;;;;5077112;28;20405;-80
2022/11/26 10:15:16;;;;;;;6.55;1.73;;;19.00;99.90;;;;;;5063103;28;20439;-82
2022/11/26 10:18:10;;;;;;;6.65;2.25;;;18.90;99.90;;;;;;5071197;28;20428;-82
2022/11/26 10:20:55;;;;;;;6.57;2.30;;;18.80;99.90;;;;;;5071277;28;20405;-81
2022/11/26 10:24:00;;;;;;;7.53;2.28;;;18.80;99.90;;;;;;5071144;28;20415;-81
2022/11/26 10:26:34;;;;;;;4.63;1.98;;;18.80;99.90;;;;;;5070935;28;20385;-82
2022/11/26 10:29:25;;;;;;;8.88;2.42;;;18.80;99.90;;;;;;5071306;28;20858;-82
2022/11/26 10:32:10;;;;;;;5.93;2.08;;;18.80;99.90;;;;;;5071043;28;20366;-80
2022/11/26 10:35:03;;;;;;;8.60;2.20;;;18.80;99.90;;;;;;5070708;28;20437;-79
2022/11/26 10:37:31;;;;;;;7.65;2.10;;;18.70;99.90;;;;;;5048287;28;20390;-79
2022/11/26 10:40:09;;;;;;;5.60;1.90;;;18.70;99.90;;;;;;5052751;28;20778;-79
2022/11/26 10:42:47;;;;;;;8.50;2.00;;;18.60;99.90;;;;;;5071132;28;20367;-81
2022/11/26 10:45:24;;;;;;;7.82;1.80;;;18.50;99.90;;;;;;5070991;28;20824;-78
2022/11/26 10:47:52;;;;;;;6.18;1.60;;;18.50;99.90;;;;;;5071039;28;20366;-81
2022/11/26 10:50:22;;;;;;;5.28;1.80;;;18.50;99.90;;;;;;5070780;28;20867;-81
2022/11/26 10:52:52;;;;;;;5.57;1.92;;;18.50;99.90;;;;;;5062367;28;20859;-82
2022/11/26 10:55:24;;;;;;;8.55;2.00;;;18.50;99.90;;;;;;5065160;28;20473;-80
2022/11/26 10:58:04;;;;;;;6.68;1.90;;;18.50;99.90;;;;;;5065383;28;20390;-80
2022/11/26 11:00:51;;;;;;;7.17;1.70;;;18.40;99.90;;;;;;5061815;28;20412;-80
2022/11/26 11:03:45;;;;;;;7.43;1.83;;;18.40;99.90;;;;;;5074734;28;20398;-78
2022/11/26 11:06:33;;;;;;;5.80;1.70;;;18.30;99.90;;;;;;5053580;28;20374;-81
2022/11/26 11:09:00;;;;;;;7.55;1.77;;;18.30;99.90;;;;;;5058566;28;20738;-80
2022/11/26 11:11:35;;;;;;;5.43;1.77;;;18.30;99.90;;;;;;5064764;28;20375;-80
2022/11/26 11:14:02;;;;;;;7.82;2.05;;;18.30;99.90;;;;;;5072213;28;20413;-81
2022/11/26 11:16:42;;;;;;;6.88;2.00;;;18.20;99.90;;;;;;5075326;28;20373;-81
2022/11/26 11:19:24;;;;;;;4.63;1.77;;;18.30;99.90;;;;;;5074508;28;20390;-81
2022/11/26 11:21:52;;;;;;;6.60;2.05;;;18.30;99.90;;;;;;5066777;28;20803;-81
2022/11/26 11:24:28;;;;;;;7.40;2.00;;;18.20;99.90;;;;;;5070513;28;20370;-80
2022/11/26 11:26:59;;;;;;;7.47;1.90;;;18.20;99.90;;;;;;5070370;28;20378;-82
2022/11/26 11:29:32;;;;;;;7.50;1.98;;;18.20;99.90;;;;;;5070350;28;20374;-82
2022/11/26 11:32:03;;;;;;;6.78;1.90;;;18.20;99.90;;;;;;5070165;28;20374;-81
2022/11/26 11:34:37;;;;;;;6.57;2.25;;;18.20;99.90;;;;;;5069521;28;20845;-79
2022/11/26 11:37:16;;;;;;;9.20;2.33;;;18.20;99.90;;;;;;5070450;28;20746;-81
2022/11/26 11:39:44;;;;;;;7.80;2.15;;;18.10;99.90;;;;;;5070035;28;20807;-80
2022/11/26 11:42:29;;;;;;;7.43;2.10;;;18.10;99.90;;;;;;5070604;28;20375;-79
2022/11/26 11:44:59;;;;;;;7.05;2.05;;;18.10;99.90;;;;;;5069663;28;20366;-80
2022/11/26 11:47:39;;;;;;;7.13;1.85;;;18.10;99.90;;;;;;5069804;28;20382;-81
2022/11/26 11:50:31;;;;;;;7.60;2.25;;;18.10;99.90;;;;;;5069650;28;20381;-80
2022/11/26 11:53:22;;;;;;;7.63;2.17;;;18.10;99.90;;;;;;5069867;28;20362;-80
2022/11/26 11:56:18;;;;;;;8.07;2.05;;;18.00;99.90;;;;;;5042672;28;20381;-81
2022/11/26 11:59:03;;;;;;;7.70;2.05;;;18.00;99.90;;;;;;4968601;28;20835;-81
2022/11/26 12:01:53;;;;;;;11.15;2.10;;;18.00;99.90;;;;;;4968892;28;20465;-80
2022/11/26 12:04:52;;;;;;;6.80;1.70;;;18.00;99.90;;;;;;4955902;28;20731;-79
2022/11/26 12:07:40;;;;;;;7.57;2.03;;;18.00;99.90;;;;;;4968654;28;20390;-81
2022/11/26 12:10:24;;;;;;;8.15;1.83;;;18.00;99.90;;;;;;4968829;28;21013;-79
2022/11/26 12:12:59;;;;;;;7.95;1.88;;;17.90;99.90;;;;;;4943337;28;20395;-81
2022/11/26 12:15:29;;;;;;;5.65;1.80;;;17.90;99.90;;;;;;4968602;28;20393;-81
2022/11/26 12:17:56;;;;;;;6.90;1.80;;;17.90;99.90;;;;;;4968952;28;20394;-80
2022/11/26 12:20:29;;;;;;;7.07;1.83;;;17.90;99.90;;;;;;4968810;28;20894;-79
2022/11/26 12:23:27;;;;;;;7.50;1.70;;;17.80;99.90;;;;;;4962738;28;20391;-80
2022/11/26 12:26:24;;;;;;;8.60;1.90;;;17.80;99.90;;;;;;4961020;28;20440;-79
2022/11/26 12:28:56;;;;;;;6.85;1.98;;;17.80;99.90;;;;;;4963503;28;20481;-81
2022/11/26 12:31:38;;;;;;;7.00;1.60;;;17.80;99.90;;;;;;4968490;28;20924;-80
2022/11/26 12:34:16;;;;;;;5.93;1.70;;;17.80;99.90;;;;;;4968682;28;20379;-79
2022/11/26 12:37:05;;;;;;;6.75;1.73;;;17.70;99.90;;;;;;5024049;28;20385;-81
2022/11/26 12:39:48;;;;;;;7.57;1.95;;;17.70;99.90;;;;;;5029242;28;20405;-81
2022/11/26 12:42:25;;;;;;;8.38;1.95;;;17.70;99.90;;;;;;5003739;28;20388;-79
2022/11/26 12:44:55;;;;;;;7.97;1.95;;;17.70;99.90;;;;;;5029523;28;20401;-81
2022/11/26 12:47:43;;;;;;;7.45;1.70;;;17.70;99.90;;;;;;5033115;28;20388;-81
2022/11/26 12:50:36;;;;;;;10.85;2.13;;;17.70;99.90;;;;;;5032977;28;20903;-81
2022/11/26 12:53:30;;;;;;;8.73;2.08;;;17.70;99.90;;;;;;5021350;28;20454;-80
2022/11/26 12:56:23;;;;;;;7.22;1.70;;;17.70;99.90;;;;;;5010249;28;20431;-78
2022/11/26 12:59:26;;;;;;;6.53;1.80;;;17.60;99.90;;;;;;5072829;28;20374;-80
2022/11/26 13:01:53;;;;;;;6.10;1.80;;;17.60;99.90;;;;;;5062289;28;20847;-80
2022/11/26 13:04:22;;;;;;;6.85;1.60;;;17.60;99.90;;;;;;5072729;28;20378;-81
2022/11/26 13:06:55;;;;;;;8.25;2.00;;;17.60;99.90;;;;;;5072640;28;20405;-81
2022/11/26 13:09:22;;;;;;;7.50;2.00;;;17.60;99.90;;;;;;5052728;28;20605;-81
2022/11/26 13:12:10;;;;;;;7.10;1.63;;;17.60;99.90;;;;;;5064997;28;20374;-79